KLGA/LGA METAR and TAF weather

Enter ICAO airport designator
Station Type Date Time Source
KLGA METAR 2019/02/23 00:51 UTC NOAA

KLGA 230051Z 35011KT 10SM OVC250 04/M06 A3042 RMK AO2 SLP301 T00441061


Station Type Date Time Source
KLGA Decoded METAR 2019/02/23 00:51 UTC NOAA

NEW YORK LA GUARDIA AIRPORT , NY, United States (KLGA) 40-47N 73-53W 11M
Feb 22, 2019 - 07:51 PM EST / 2019.02.23 0051 UTC
Wind: from the N (350 degrees) at 13 MPH (11 KT):0
Visibility: 10 mile(s):0
Sky conditions: overcast
Temperature: 39.9 F (4.4 C)
Dew Point: 21.0 F (-6.1 C)
Relative Humidity: 46%
Pressure (altimeter): 30.42 in. Hg (1030 hPa)
ob: KLGA 230051Z 35011KT 10SM OVC250 04/M06 A3042 RMK AO2 SLP301 T00441061
cycle: 1

Station Type Date Time Source
KLGA TAF 2019/02/23 00:03 UTC NOAA

TAF KLGA 230000Z 2300/2406 35008KT P6SM BKN250
FM230600 01006KT P6SM BKN250
FM231000 05006KT P6SM BKN250
FM231800 12004KT P6SM SCT035 BKN250
FM232300 13005KT P6SM SCT025 OVC150
FM240300 12006KT P6SM SCT015 OVC050
FM240500 11006KT P6SM -RA SCT009 OVC026


Example: see airport list